sensor_id;sensor_type;location;lat;lon;timestamp;pressure;altitude;pressure_sealevel;temperature;humidity
69667;BME280;66534;52.370;4.832;2023-01-15T00:00:08;99691.09;;;7.42;100.00
69667;BME280;66534;52.370;4.832;2023-01-15T00:00:39;99690.25;;;7.41;100.00
69667;BME280;66534;52.370;4.832;2023-01-15T00:01:21;99685.28;;;7.37;100.00
69667;BME280;66534;52.370;4.832;2023-01-15T00:01:59;99700.78;;;7.40;100.00
69667;BME280;66534;52.370;4.832;2023-01-15T00:02:29;99706.13;;;7.37;100.00
69667;BME280;66534;52.370;4.832;2023-01-15T00:03:00;99702.75;;;7.35;100.00
69667;BME280;66534;52.370;4.832;2023-01-15T00:03:31;99697.16;;;7.42;100.00
69667;BME280;66534;52.370;4.832;2023-01-15T00:04:02;99699.53;;;7.47;100.00
69667;BME280;66534;52.370;4.832;2023-01-15T00:04:34;99695.25;;;7.46;100.00
69667;BME280;66534;52.370;4.832;2023-01-15T00:05:05;99705.06;;;7.41;100.00
69667;BME280;66534;52.370;4.832;2023-01-15T00:05:35;99709.59;;;7.37;100.00
69667;BME280;66534;52.370;4.832;2023-01-15T00:06:06;99683.72;;;7.33;100.00
69667;BME280;66534;52.370;4.832;2023-01-15T00:06:37;99702.91;;;7.32;100.00
69667;BME280;66534;52.370;4.832;2023-01-15T00:07:09;99699.53;;;7.30;100.00
69667;BME280;66534;52.370;4.832;2023-01-15T00:07:39;99704.75;;;7.30;100.00
69667;BME280;66534;52.370;4.832;2023-01-15T00:08:10;99695.94;;;7.32;100.00
69667;BME280;66534;52.370;4.832;2023-01-15T00:08:40;99695.47;;;7.41;100.00
69667;BME280;66534;52.370;4.832;2023-01-15T00:09:14;99697.63;;;7.33;100.00
69667;BME280;66534;52.370;4.832;2023-01-15T00:09:45;99707.13;;;7.34;100.00
69667;BME280;66534;52.370;4.832;2023-01-15T00:10:15;99697.53;;;7.35;100.00
69667;BME280;66534;52.370;4.832;2023-01-15T00:10:46;99697.47;;;7.36;100.00
69667;BME280;66534;52.370;4.832;2023-01-15T00:11:16;99692.06;;;7.39;100.00
69667;BME280;66534;52.370;4.832;2023-01-15T00:11:47;99681.03;;;7.34;100.00
69667;BME280;66534;52.370;4.832;2023-01-15T00:12:18;99702.84;;;7.33;100.00
69667;BME280;66534;52.370;4.832;2023-01-15T00:12:49;99706.97;;;7.37;100.00
69667;BME280;66534;52.370;4.832;2023-01-15T00:13:19;99693.25;;;7.34;100.00
69667;BME280;66534;52.370;4.832;2023-01-15T00:13:50;99695.94;;;7.32;100.00
69667;BME280;66534;52.370;4.832;2023-01-15T00:14:21;99690.06;;;7.27;100.00
69667;BME280;66534;52.370;4.832;2023-01-15T00:14:52;99694.69;;;7.22;100.00
69667;BME280;66534;52.370;4.832;2023-01-15T00:15:22;99698.53;;;7.32;100.00
69667;BME280;66534;52.370;4.832;2023-01-15T00:15:52;99672.97;;;7.39;100.00
69667;BME280;66534;52.370;4.832;2023-01-15T00:16:24;99689.47;;;7.39;100.00
69667;BME280;66534;52.370;4.832;2023-01-15T00:16:55;99688.47;;;7.42;100.00
69667;BME280;66534;52.370;4.832;2023-01-15T00:17:26;99694.63;;;7.41;100.00
69667;BME280;66534;52.370;4.832;2023-01-15T00:17:56;99699.91;;;7.39;100.00
69667;BME280;66534;52.370;4.832;2023-01-15T00:18:26;99692.03;;;7.41;100.00
69667;BME280;66534;52.370;4.832;2023-01-15T00:18:58;99699.28;;;7.34;100.00
69667;BME280;66534;52.370;4.832;2023-01-15T00:19:29;99686.09;;;7.37;100.00
69667;BME280;66534;52.370;4.832;2023-01-15T00:19:59;99694.78;;;7.38;100.00
69667;BME280;66534;52.370;4.832;2023-01-15T00:20:30;99705.91;;;7.41;100.00
69667;BME280;66534;52.370;4.832;2023-01-15T00:21:01;99690.34;;;7.40;100.00
69667;BME280;66534;52.370;4.832;2023-01-15T00:21:33;99709.34;;;7.42;100.00
69667;BME280;66534;52.370;4.832;2023-01-15T00:22:03;99701.53;;;7.42;100.00
69667;BME280;66534;52.370;4.832;2023-01-15T00:22:34;99685.28;;;7.37;100.00
69667;BME280;66534;52.370;4.832;2023-01-15T00:23:04;99692.94;;;7.40;100.00
69667;BME280;66534;52.370;4.832;2023-01-15T00:23:35;99683.59;;;7.36;100.00
69667;BME280;66534;52.370;4.832;2023-01-15T00:24:23;99692.25;;;7.36;100.00
69667;BME280;66534;52.370;4.832;2023-01-15T00:25:13;99685.56;;;7.31;100.00
69667;BME280;66534;52.370;4.832;2023-01-15T00:26:02;99686.09;;;7.37;100.00
69667;BME280;66534;52.370;4.832;2023-01-15T00:26:51;99696.41;;;7.40;100.00
69667;BME280;66534;52.370;4.832;2023-01-15T00:27:40;99690.00;;;7.29;100.00
69667;BME280;66534;52.370;4.832;2023-01-15T00:28:13;99693.47;;;7.29;100.00
69667;BME280;66534;52.370;4.832;2023-01-15T00:28:43;99697.00;;;7.28;100.00
69667;BME280;66534;52.370;4.832;2023-01-15T00:29:17;99692.41;;;7.33;100.00
69667;BME280;66534;52.370;4.832;2023-01-15T00:29:48;99698.53;;;7.32;100.00
69667;BME280;66534;52.370;4.832;2023-01-15T00:30:18;99687.47;;;7.27;100.00
69667;BME280;66534;52.370;4.832;2023-01-15T00:30:49;99684.00;;;7.27;100.00
69667;BME280;66534;52.370;4.832;2023-01-15T00:31:19;99677.81;;;7.29;100.00
69667;BME280;66534;52.370;4.832;2023-01-15T00:31:57;99692.84;;;7.24;100.00
69667;BME280;66534;52.370;4.832;2023-01-15T00:32:35;99695.47;;;7.24;100.00
69667;BME280;66534;52.370;4.832;2023-01-15T00:33:05;99689.09;;;7.30;100.00
69667;BME280;66534;52.370;4.832;2023-01-15T00:33:35;99681.19;;;7.31;100.00
69667;BME280;66534;52.370;4.832;2023-01-15T00:34:06;99684.81;;;7.29;100.00
69667;BME280;66534;52.370;4.832;2023-01-15T00:34:36;99684.72;;;7.30;100.00
69667;BME280;66534;52.370;4.832;2023-01-15T00:35:10;99691.78;;;7.28;100.00
69667;BME280;66534;52.370;4.832;2023-01-15T00:35:42;99677.59;;;7.34;100.00
69667;BME280;66534;52.370;4.832;2023-01-15T00:36:13;99677.91;;;7.28;100.00
69667;BME280;66534;52.370;4.832;2023-01-15T00:36:43;99678.09;;;7.23;100.00
69667;BME280;66534;52.370;4.832;2023-01-15T00:37:13;99674.88;;;7.18;100.00
69667;BME280;66534;52.370;4.832;2023-01-15T00:37:44;99677.25;;;7.22;100.00
69667;BME280;66534;52.370;4.832;2023-01-15T00:38:14;99680.72;;;7.23;100.00
69667;BME280;66534;52.370;4.832;2023-01-15T00:38:45;99675.72;;;7.18;100.00
69667;BME280;66534;52.370;4.832;2023-01-15T00:39:15;99658.25;;;7.20;100.00
69667;BME280;66534;52.370;4.832;2023-01-15T00:39:45;99669.38;;;7.24;100.00
69667;BME280;66534;52.370;4.832;2023-01-15T00:40:16;99677.34;;;7.21;100.00
69667;BME280;66534;52.370;4.832;2023-01-15T00:40:48;99681.72;;;7.20;100.00
69667;BME280;66534;52.370;4.832;2023-01-15T00:41:22;99673.06;;;7.20;100.00
69667;BME280;66534;52.370;4.832;2023-01-15T00:41:52;99685.53;;;7.13;100.00
69667;BME280;66534;52.370;4.832;2023-01-15T00:42:24;99683.16;;;7.09;100.00
69667;BME280;66534;52.370;4.832;2023-01-15T00:42:54;99672.81;;;7.07;100.00
69667;BME280;66534;52.370;4.832;2023-01-15T00:43:25;99680.69;;;7.06;100.00
69667;BME280;66534;52.370;4.832;2023-01-15T00:43:58;99673.66;;;7.08;100.00
69667;BME280;66534;52.370;4.832;2023-01-15T00:44:28;99675.41;;;7.07;100.00
69667;BME280;66534;52.370;4.832;2023-01-15T00:44:59;99689.78;;;7.16;100.00
69667;BME280;66534;52.370;4.832;2023-01-15T00:45:36;99681.78;;;7.19;100.00
69667;BME280;66534;52.370;4.832;2023-01-15T00:46:06;99690.53;;;7.18;100.00
69667;BME280;66534;52.370;4.832;2023-01-15T00:46:37;99684.63;;;7.14;100.00
69667;BME280;66534;52.370;4.832;2023-01-15T00:47:08;99684.78;;;7.11;100.00
69667;BME280;66534;52.370;4.832;2023-01-15T00:47:43;99686.38;;;7.14;100.00
69667;BME280;66534;52.370;4.832;2023-01-15T00:48:17;99675.25;;;7.10;100.00
69667;BME280;66534;52.370;4.832;2023-01-15T00:48:47;99673.34;;;7.14;100.00
69667;BME280;66534;52.370;4.832;2023-01-15T00:49:17;99683.63;;;7.17;100.00
69667;BME280;66534;52.370;4.832;2023-01-15T00:49:48;99677.03;;;7.10;100.00
69667;BME280;66534;52.370;4.832;2023-01-15T00:50:19;99680.47;;;7.10;100.00
69667;BME280;66534;52.370;4.832;2023-01-15T00:50:50;99698.53;;;7.15;100.00
69667;BME280;66534;52.370;4.832;2023-01-15T00:51:20;99680.78;;;7.21;100.00
69667;BME280;66534;52.370;4.832;2023-01-15T00:51:50;99687.00;;;7.19;100.00
69667;BME280;66534;52.370;4.832;2023-01-15T00:52:21;99680.31;;;7.13;100.00
69667;BME280;66534;52.370;4.832;2023-01-15T00:52:51;99694.44;;;7.09;100.00
69667;BME280;66534;52.370;4.832;2023-01-15T00:53:22;99677.94;;;7.09;100.00
69667;BME280;66534;52.370;4.832;2023-01-15T00:53:52;99674.50;;;7.08;100.00
69667;BME280;66534;52.370;4.832;2023-01-15T00:54:22;99675.34;;;7.09;100.00
69667;BME280;66534;52.370;4.832;2023-01-15T00:54:53;99671.03;;;7.08;100.00
69667;BME280;66534;52.370;4.832;2023-01-15T00:55:23;99676.31;;;7.06;100.00
69667;BME280;66534;52.370;4.832;2023-01-15T00:55:54;99679.00;;;7.05;100.00
69667;BME280;66534;52.370;4.832;2023-01-15T00:56:25;99681.41;;;7.09;100.00
69667;BME280;66534;52.370;4.832;2023-01-15T00:56:55;99676.19;;;7.09;100.00
69667;BME280;66534;52.370;4.832;2023-01-15T00:57:26;99691.06;;;7.07;100.00
69667;BME280;66534;52.370;4.832;2023-01-15T00:57:57;99683.38;;;7.04;100.00
69667;BME280;66534;52.370;4.832;2023-01-15T00:58:27;99689.53;;;7.03;100.00
69667;BME280;66534;52.370;4.832;2023-01-15T00:59:00;99686.91;;;7.03;100.00
69667;BME280;66534;52.370;4.832;2023-01-15T00:59:31;99677.34;;;7.04;100.00
69667;BME280;66534;52.370;4.832;2023-01-15T01:00:02;99684.69;;;7.13;100.00
69667;BME280;66534;52.370;4.832;2023-01-15T01:00:33;99683.03;;;7.12;100.00
69667;BME280;66534;52.370;4.832;2023-01-15T01:01:03;99684.84;;;7.10;100.00
69667;BME280;66534;52.370;4.832;2023-01-15T01:01:34;99684.84;;;7.10;100.00
69667;BME280;66534;52.370;4.832;2023-01-15T01:02:05;99681.41;;;7.09;100.00
69667;BME280;66534;52.370;4.832;2023-01-15T01:02:35;99681.47;;;7.08;100.00
69667;BME280;66534;52.370;4.832;2023-01-15T01:03:05;99688.47;;;7.07;100.00
69667;BME280;66534;52.370;4.832;2023-01-15T01:03:36;99689.44;;;7.05;100.00
69667;BME280;66534;52.370;4.832;2023-01-15T01:04:06;99685.16;;;7.04;100.00
69667;BME280;66534;52.370;4.832;2023-01-15T01:04:37;99687.63;;;7.07;100.00
69667;BME280;66534;52.370;4.832;2023-01-15T01:05:07;99691.13;;;7.06;100.00
69667;BME280;66534;52.370;4.832;2023-01-15T01:05:38;99682.69;;;7.01;100.00
69667;BME280;66534;52.370;4.832;2023-01-15T01:06:08;99681.94;;;6.98;100.00
69667;BME280;66534;52.370;4.832;2023-01-15T01:06:39;99691.66;;;6.95;100.00
69667;BME280;66534;52.370;4.832;2023-01-15T01:07:09;99693.13;;;7.01;100.00
69667;BME280;66534;52.370;4.832;2023-01-15T01:07:40;99666.97;;;7.02;100.00
69667;BME280;66534;52.370;4.832;2023-01-15T01:08:10;99679.09;;;7.03;100.00
69667;BME280;66534;52.370;4.832;2023-01-15T01:08:41;99679.00;;;7.05;100.00
69667;BME280;66534;52.370;4.832;2023-01-15T01:09:15;99685.16;;;7.04;100.00
69667;BME280;66534;52.370;4.832;2023-01-15T01:09:46;99686.13;;;7.01;100.00
69667;BME280;66534;52.370;4.832;2023-01-15T01:10:17;99688.97;;;6.96;100.00
69667;BME280;66534;52.370;4.832;2023-01-15T01:10:47;99688.59;;;7.04;100.00
69667;BME280;66534;52.370;4.832;2023-01-15T01:11:19;99685.16;;;7.04;100.00
69667;BME280;66534;52.370;4.832;2023-01-15T01:11:52;99691.34;;;7.01;100.00
69667;BME280;66534;52.370;4.832;2023-01-15T01:12:23;99687.28;;;6.95;100.00
69667;BME280;66534;52.370;4.832;2023-01-15T01:12:53;99688.13;;;6.96;100.00
69667;BME280;66534;52.370;4.832;2023-01-15T01:13:25;99684.69;;;6.95;100.00
69667;BME280;66534;52.370;4.832;2023-01-15T01:13:55;99680.38;;;6.94;100.00
69667;BME280;66534;52.370;4.832;2023-01-15T01:14:26;99685.59;;;6.94;100.00
69667;BME280;66534;52.370;4.832;2023-01-15T01:14:57;99693.56;;;6.91;100.00
69667;BME280;66534;52.370;4.832;2023-01-15T01:15:27;99686.34;;;6.96;100.00
69667;BME280;66534;52.370;4.832;2023-01-15T01:15:58;99691.44;;;6.99;100.00
69667;BME280;66534;52.370;4.832;2023-01-15T01:16:32;99688.47;;;7.07;100.00
69667;BME280;66534;52.370;4.832;2023-01-15T01:17:07;99694.09;;;6.98;100.00
69667;BME280;66534;52.370;4.832;2023-01-15T01:17:38;99686.50;;;6.93;100.00
69667;BME280;66534;52.370;4.832;2023-01-15T01:18:08;99696.09;;;6.93;100.00
69667;BME280;66534;52.370;4.832;2023-01-15T01:18:39;99698.56;;;6.96;100.00
69667;BME280;66534;52.370;4.832;2023-01-15T01:19:10;99697.63;;;6.97;100.00
69667;BME280;66534;52.370;4.832;2023-01-15T01:19:43;99693.47;;;6.93;100.00
69667;BME280;66534;52.370;4.832;2023-01-15T01:20:15;99696.03;;;6.94;100.00
69667;BME280;66534;52.370;4.832;2023-01-15T01:20:46;99694.88;;;7.00;100.00
69667;BME280;66534;52.370;4.832;2023-01-15T01:21:17;99697.97;;;7.08;100.00
69667;BME280;66534;52.370;4.832;2023-01-15T01:21:48;99710.31;;;7.05;100.00
69667;BME280;66534;52.370;4.832;2023-01-15T01:22:19;99698.34;;;7.01;100.00
69667;BME280;66534;52.370;4.832;2023-01-15T01:22:49;99705.31;;;7.00;100.00
69667;BME280;66534;52.370;4.832;2023-01-15T01:23:21;99694.53;;;7.08;100.00
69667;BME280;66534;52.370;4.832;2023-01-15T01:23:53;99698.66;;;7.12;100.00
69667;BME280;66534;52.370;4.832;2023-01-15T01:24:23;99700.84;;;7.02;100.00
69667;BME280;66534;52.370;4.832;2023-01-15T01:24:54;99708.69;;;7.02;100.00
69667;BME280;66534;52.370;4.832;2023-01-15T01:25:24;99705.09;;;7.05;100.00
69667;BME280;66534;52.370;4.832;2023-01-15T01:25:55;99704.94;;;7.08;100.00
69667;BME280;66534;52.370;4.832;2023-01-15T01:26:27;99704.03;;;7.09;100.00
69667;BME280;66534;52.370;4.832;2023-01-15T01:26:58;99709.16;;;7.10;100.00
69667;BME280;66534;52.370;4.832;2023-01-15T01:27:29;99705.56;;;7.13;100.00
69667;BME280;66534;52.370;4.832;2023-01-15T01:27:59;99708.41;;;7.08;100.00
69667;BME280;66534;52.370;4.832;2023-01-15T01:28:29;99708.09;;;7.14;100.00
69667;BME280;66534;52.370;4.832;2023-01-15T01:29:00;99712.78;;;7.08;100.00
69667;BME280;66534;52.370;4.832;2023-01-15T01:29:30;99708.00;;;6.98;100.00
69667;BME280;66534;52.370;4.832;2023-01-15T01:30:01;99689.81;;;6.97;100.00
69667;BME280;66534;52.370;4.832;2023-01-15T01:30:31;99698.56;;;6.96;100.00
69667;BME280;66534;52.370;4.832;2023-01-15T01:31:05;99698.06;;;7.07;100.00
69667;BME280;66534;52.370;4.832;2023-01-15T01:31:37;99701.88;;;6.99;100.00
69667;BME280;66534;52.370;4.832;2023-01-15T01:32:07;99707.84;;;7.02;100.00
69667;BME280;66534;52.370;4.832;2023-01-15T01:32:38;99703.78;;;6.96;100.00
69667;BME280;66534;52.370;4.832;2023-01-15T01:33:09;99711.28;;;7.02;100.00
69667;BME280;66534;52.370;4.832;2023-01-15T01:33:39;99706.72;;;7.07;100.00
69667;BME280;66534;52.370;4.832;2023-01-15T01:34:10;99706.78;;;7.06;100.00
69667;BME280;66534;52.370;4.832;2023-01-15T01:34:41;99712.16;;;7.03;100.00
69667;BME280;66534;52.370;4.832;2023-01-15T01:35:12;99701.50;;;7.07;100.00
69667;BME280;66534;52.370;4.832;2023-01-15T01:35:46;99708.53;;;7.05;100.00
69667;BME280;66534;52.370;4.832;2023-01-15T01:36:20;99712.81;;;7.06;100.00
69667;BME280;66534;52.370;4.832;2023-01-15T01:36:56;99711.84;;;7.09;100.00
69667;BME280;66534;52.370;4.832;2023-01-15T01:37:27;99710.91;;;7.10;100.00
69667;BME280;66534;52.370;4.832;2023-01-15T01:37:57;99719.38;;;7.15;100.00
69667;BME280;66534;52.370;4.832;2023-01-15T01:38:28;99723.59;;;7.17;100.00
69667;BME280;66534;52.370;4.832;2023-01-15T01:38:59;99720.91;;;7.19;100.00
69667;BME280;66534;52.370;4.832;2023-01-15T01:39:30;99719.66;;;7.09;100.00
69667;BME280;66534;52.370;4.832;2023-01-15T01:40:01;99724.19;;;7.05;100.00
69667;BME280;66534;52.370;4.832;2023-01-15T01:40:32;99725.09;;;7.04;100.00
69667;BME280;66534;52.370;4.832;2023-01-15T01:41:02;99717.50;;;6.99;100.00
69667;BME280;66534;52.370;4.832;2023-01-15T01:41:33;99726.03;;;7.03;100.00
69667;BME280;66534;52.370;4.832;2023-01-15T01:42:04;99723.44;;;7.03;100.00
69667;BME280;66534;52.370;4.832;2023-01-15T01:42:40;99725.88;;;7.06;100.00
69667;BME280;66534;52.370;4.832;2023-01-15T01:43:20;99727.34;;;7.12;100.00
69667;BME280;66534;52.370;4.832;2023-01-15T01:43:57;99725.81;;;7.08;100.00
69667;BME280;66534;52.370;4.832;2023-01-15T01:45:05;99727.56;;;7.07;100.00
69667;BME280;66534;52.370;4.832;2023-01-15T01:45:43;99726.78;;;7.05;100.00
69667;BME280;66534;52.370;4.832;2023-01-15T01:46:14;99723.25;;;7.06;100.00
69667;BME280;66534;52.370;4.832;2023-01-15T01:46:44;99722.97;;;7.12;100.00
69667;BME280;66534;52.370;4.832;2023-01-15T01:47:16;99731.72;;;7.11;100.00
69667;BME280;66534;52.370;4.832;2023-01-15T01:47:56;99720.16;;;7.17;100.00
69667;BME280;66534;52.370;4.832;2023-01-15T01:48:31;99723.72;;;7.14;100.00
69667;BME280;66534;52.370;4.832;2023-01-15T01:49:10;99713.53;;;7.10;100.00
69667;BME280;66534;52.370;4.832;2023-01-15T01:49:43;99723.91;;;7.11;100.00
69667;BME280;66534;52.370;4.832;2023-01-15T01:50:16;99713.25;;;7.16;100.00
69667;BME280;66534;52.370;4.832;2023-01-15T01:50:47;99711.72;;;7.12;100.00
69667;BME280;66534;52.370;4.832;2023-01-15T01:51:20;99720.72;;;7.05;100.00
69667;BME280;66534;52.370;4.832;2023-01-15T01:51:55;99717.38;;;7.03;100.00
69667;BME280;66534;52.370;4.832;2023-01-15T01:52:41;99717.50;;;6.99;100.00
69667;BME280;66534;52.370;4.832;2023-01-15T01:53:18;99723.19;;;7.08;100.00
69667;BME280;66534;52.370;4.832;2023-01-15T01:53:51;99724.97;;;7.07;100.00
69667;BME280;66534;52.370;4.832;2023-01-15T01:54:23;99719.88;;;7.04;100.00
69667;BME280;66534;52.370;4.832;2023-01-15T01:54:55;99720.59;;;7.08;100.00
69667;BME280;66534;52.370;4.832;2023-01-15T01:55:26;99722.91;;;7.14;100.00
69667;BME280;66534;52.370;4.832;2023-01-15T01:55:58;99707.56;;;7.08;100.00
69667;BME280;66534;52.370;4.832;2023-01-15T01:56:30;99717.16;;;7.07;100.00
69667;BME280;66534;52.370;4.832;2023-01-15T01:57:03;99716.97;;;7.10;100.00
69667;BME280;66534;52.370;4.832;2023-01-15T01:57:37;99709.38;;;7.06;100.00
69667;BME280;66534;52.370;4.832;2023-01-15T01:58:09;99713.06;;;7.02;100.00
69667;BME280;66534;52.370;4.832;2023-01-15T01:58:41;99715.28;;;7.09;100.00
69667;BME280;66534;52.370;4.832;2023-01-15T01:59:17;99704.81;;;7.11;100.00
69667;BME280;66534;52.370;4.832;2023-01-15T01:59:50;99698.91;;;7.07;100.00
69667;BME280;66534;52.370;4.832;2023-01-15T02:00:22;99708.88;;;7.16;100.00
69667;BME280;66534;52.370;4.832;2023-01-15T02:00:53;99712.31;;;7.17;100.00
69667;BME280;66534;52.370;4.832;2023-01-15T02:01:24;99711.63;;;7.13;100.00
69667;BME280;66534;52.370;4.832;2023-01-15T02:01:55;99710.16;;;7.08;100.00
69667;BME280;66534;52.370;4.832;2023-01-15T02:02:25;99703.31;;;7.05;100.00
69667;BME280;66534;52.370;4.832;2023-01-15T02:02:57;99717.19;;;7.06;100.00
69667;BME280;66534;52.370;4.832;2023-01-15T02:03:30;99714.59;;;7.06;100.00
69667;BME280;66534;52.370;4.832;2023-01-15T02:04:05;99716.34;;;7.05;100.00
69667;BME280;66534;52.370;4.832;2023-01-15T02:04:38;99722.19;;;7.10;100.00
69667;BME280;66534;52.370;4.832;2023-01-15T02:05:10;99720.22;;;7.15;100.00
69667;BME280;66534;52.370;4.832;2023-01-15T02:05:46;99720.72;;;7.05;100.00
69667;BME280;66534;52.370;4.832;2023-01-15T02:06:20;99719.75;;;7.07;100.00
69667;BME280;66534;52.370;4.832;2023-01-15T02:06:53;99724.25;;;7.04;100.00
69667;BME280;66534;52.370;4.832;2023-01-15T02:07:24;99719.59;;;7.10;100.00
69667;BME280;66534;52.370;4.832;2023-01-15T02:07:55;99717.16;;;7.07;100.00
69667;BME280;66534;52.370;4.832;2023-01-15T02:08:26;99726.75;;;7.07;100.00
69667;BME280;66534;52.370;4.832;2023-01-15T02:08:56;99734.16;;;7.14;100.00
69667;BME280;66534;52.370;4.832;2023-01-15T02:09:27;99716.00;;;7.13;100.00
69667;BME280;66534;52.370;4.832;2023-01-15T02:09:57;99721.28;;;7.11;100.00
69667;BME280;66534;52.370;4.832;2023-01-15T02:10:28;99714.31;;;7.12;100.00
69667;BME280;66534;52.370;4.832;2023-01-15T02:10:59;99719.66;;;7.09;100.00
69667;BME280;66534;52.370;4.832;2023-01-15T02:11:30;99715.44;;;7.06;100.00
69667;BME280;66534;52.370;4.832;2023-01-15T02:12:07;99717.44;;;7.18;100.00
69667;BME280;66534;52.370;4.832;2023-01-15T02:13:15;99718.28;;;7.19;100.00
69667;BME280;66534;52.370;4.832;2023-01-15T02:14:03;99717.53;;;7.17;100.00
69667;BME280;66534;52.370;4.832;2023-01-15T02:14:41;99713.94;;;7.19;100.00
69667;BME280;66534;52.370;4.832;2023-01-15T02:15:28;99715.06;;;7.14;100.00
69667;BME280;66534;52.370;4.832;2023-01-15T02:16:07;99713.06;;;7.19;100.00
69667;BME280;66534;52.370;4.832;2023-01-15T02:18:28;99713.69;;;7.07;100.00
69667;BME280;66534;52.370;4.832;2023-01-15T02:20:57;99697.25;;;7.05;100.00
69667;BME280;66534;52.370;4.832;2023-01-15T02:21:52;99702.47;;;7.05;100.00
69667;BME280;66534;52.370;4.832;2023-01-15T02:25:14;99701.41;;;7.09;100.00
69667;BME280;66534;52.370;4.832;2023-01-15T02:26:26;99705.66;;;6.92;100.00
69667;BME280;66534;52.370;4.832;2023-01-15T02:27:20;99705.97;;;6.86;100.00
69667;BME280;66534;52.370;4.832;2023-01-15T02:27:54;99702.38;;;6.89;100.00
69667;BME280;66534;52.370;4.832;2023-01-15T02:28:33;99699.47;;;6.95;100.00
69667;BME280;66534;52.370;4.832;2023-01-15T02:29:09;99699.13;;;7.03;100.00
69667;BME280;66534;52.370;4.832;2023-01-15T02:30:29;99709.34;;;6.88;100.00
69667;BME280;66534;52.370;4.832;2023-01-15T02:31:56;99699.63;;;6.92;100.00
69667;BME280;66534;52.370;4.832;2023-01-15T02:32:32;99698.16;;;6.86;100.00
69667;BME280;66534;52.370;4.832;2023-01-15T02:33:17;99704.34;;;6.84;100.00
69667;BME280;66534;52.370;4.832;2023-01-15T02:33:55;99696.16;;;6.91;100.00
69667;BME280;66534;52.370;4.832;2023-01-15T02:34:33;99706.28;;;6.97;100.00
69667;BME280;66534;52.370;4.832;2023-01-15T02:35:28;99707.84;;;7.02;100.00
69667;BME280;66534;52.370;4.832;2023-01-15T02:36:17;99714.53;;;7.07;100.00
69667;BME280;66534;52.370;4.832;2023-01-15T02:37:24;99714.44;;;7.09;100.00
69667;BME280;66534;52.370;4.832;2023-01-15T02:37:52;99712.63;;;7.11;100.00
69667;BME280;66534;52.370;4.832;2023-01-15T02:38:28;99704.81;;;7.11;100.00
69667;BME280;66534;52.370;4.832;2023-01-15T02:39:05;99708.47;;;7.07;100.00
69667;BME280;66534;52.370;4.832;2023-01-15T02:39:39;99701.41;;;7.09;100.00
69667;BME280;66534;52.370;4.832;2023-01-15T02:40:12;99702.13;;;7.12;100.00
69667;BME280;66534;52.370;4.832;2023-01-15T02:40:44;99711.94;;;7.07;100.00
69667;BME280;66534;52.370;4.832;2023-01-15T02:41:20;99696.41;;;7.04;100.00
69667;BME280;66534;52.370;4.832;2023-01-15T02:41:55;99706.94;;;7.03;100.00
69667;BME280;66534;52.370;4.832;2023-01-15T02:42:31;99698.94;;;7.06;100.00
69667;BME280;66534;52.370;4.832;2023-01-15T02:43:05;99706.50;;;7.12;100.00
69667;BME280;66534;52.370;4.832;2023-01-15T02:43:37;99703.31;;;7.05;100.00
69667;BME280;66534;52.370;4.832;2023-01-15T02:44:08;99700.22;;;6.97;100.00
69667;BME280;66534;52.370;4.832;2023-01-15T02:44:42;99703.69;;;6.97;100.00
69667;BME280;66534;52.370;4.832;2023-01-15T02:45:16;99696.91;;;6.93;100.00
69667;BME280;66534;52.370;4.832;2023-01-15T02:46:01;99706.28;;;6.97;100.00
69667;BME280;66534;52.370;4.832;2023-01-15T02:46:35;99708.22;;;6.94;100.00
69667;BME280;66534;52.370;4.832;2023-01-15T02:47:08;99696.91;;;6.93;100.00
69667;BME280;66534;52.370;4.832;2023-01-15T02:47:40;99696.41;;;7.04;100.00
69667;BME280;66534;52.370;4.832;2023-01-15T02:48:14;99706.16;;;7.01;100.00
69667;BME280;66534;52.370;4.832;2023-01-15T02:48:49;99696.56;;;7.01;100.00
69667;BME280;66534;52.370;4.832;2023-01-15T02:49:23;99703.28;;;7.07;100.00
69667;BME280;66534;52.370;4.832;2023-01-15T02:49:54;99700.72;;;7.05;100.00
69667;BME280;66534;52.370;4.832;2023-01-15T02:50:30;99706.84;;;7.04;100.00
69667;BME280;66534;52.370;4.832;2023-01-15T02:51:08;99698.66;;;7.12;100.00
69667;BME280;66534;52.370;4.832;2023-01-15T02:51:43;99699.66;;;7.09;100.00
69667;BME280;66534;52.370;4.832;2023-01-15T02:52:21;99699.88;;;7.05;100.00
69667;BME280;66534;52.370;4.832;2023-01-15T02:52:57;99685.38;;;6.99;100.00
69667;BME280;66534;52.370;4.832;2023-01-15T02:53:34;99698.47;;;6.97;100.00
69667;BME280;66534;52.370;4.832;2023-01-15T02:54:08;99701.78;;;7.01;100.00
69667;BME280;66534;52.370;4.832;2023-01-15T02:54:47;99699.16;;;7.01;100.00
69667;BME280;66534;52.370;4.832;2023-01-15T02:55:27;99699.31;;;6.98;100.00
69667;BME280;66534;52.370;4.832;2023-01-15T02:56:02;99696.78;;;6.96;100.00
69667;BME280;66534;52.370;4.832;2023-01-15T02:56:38;99691.50;;;6.98;100.00
69667;BME280;66534;52.370;4.832;2023-01-15T02:57:12;99695.31;;;6.91;100.00
69667;BME280;66534;52.370;4.832;2023-01-15T02:57:46;99710.03;;;6.92;100.00
69667;BME280;66534;52.370;4.832;2023-01-15T02:58:20;99704.38;;;7.01;100.00
69667;BME280;66534;52.370;4.832;2023-01-15T02:58:56;99695.34;;;7.08;100.00
69667;BME280;66534;52.370;4.832;2023-01-15T02:59:35;99695.50;;;7.05;100.00
69667;BME280;66534;52.370;4.832;2023-01-15T03:00:10;99695.59;;;7.04;100.00
69667;BME280;66534;52.370;4.832;2023-01-15T03:00:44;99687.19;;;6.97;100.00
69667;BME280;66534;52.370;4.832;2023-01-15T03:01:20;99704.34;;;7.03;100.00
69667;BME280;66534;52.370;4.832;2023-01-15T03:01:57;99703.41;;;7.04;100.00
69667;BME280;66534;52.370;4.832;2023-01-15T03:02:33;99691.28;;;7.03;100.00
69667;BME280;66534;52.370;4.832;2023-01-15T03:03:20;99686.84;;;7.05;100.00
69667;BME280;66534;52.370;4.832;2023-01-15T03:04:38;99685.91;;;7.06;100.00
69667;BME280;66534;52.370;4.832;2023-01-15T03:05:30;99670.34;;;7.04;100.00
69667;BME280;66534;52.370;4.832;2023-01-15T03:07:39;99684.53;;;6.98;100.00
69667;BME280;66534;52.370;4.832;2023-01-15T03:08:01;99681.22;;;6.95;100.00